Time;durP1;ratioP1;P1;durP2;ratioP2;P2;SDS_P1;SDS_P2;PMS_P1;PMS_P2;Temp;Humidity;BMP_temperature;BMP_pressure;BME280_temperature;BME280_humidity;BME280_pressure;Samples;Min_cycle;Max_cycle;Signal;HPM_P1;HPM_P2
2022/05/05 00:01:42;;;;;;;;;;;15.20;77.10;;;;;;5055389;28;19951;-89
2022/05/05 00:04:08;;;;;;;;;;;15.20;78.00;;;;;;5055278;28;19995;-90
2022/05/05 00:06:33;;;;;;;;;;;15.10;78.00;;;;;;5055321;28;19993;-89
2022/05/05 00:08:59;;;;;;;;;;;15.10;77.80;;;;;;5055217;28;19996;-89
2022/05/05 00:14:24;;;;;;;;;;;15.00;77.30;;;;;;5075209;28;20002;-88
2022/05/05 00:17:09;;;;;;;;;;;14.90;77.90;;;;;;5075106;28;19993;-90
2022/05/05 00:19:35;;;;;;;;;;;14.80;78.20;;;;;;5075353;28;19951;-90
2022/05/05 00:22:02;;;;;;;;;;;14.80;78.40;;;;;;5074632;28;19916;-90
2022/05/05 00:24:27;;;;;;;;;;;14.80;78.20;;;;;;5074917;28;20428;-90
2022/05/05 00:26:53;;;;;;;;;;;14.80;77.90;;;;;;5074851;28;19919;-90
2022/05/05 00:29:19;;;;;;;;;;;14.70;78.10;;;;;;5063820;28;19985;-89
2022/05/05 00:31:45;;;;;;;;;;;14.70;78.60;;;;;;5054690;28;20308;-90
2022/05/05 00:34:11;;;;;;;;;;;14.60;79.10;;;;;;5054678;28;19979;-90
2022/05/05 00:36:37;;;;;;;;;;;14.50;79.60;;;;;;5054686;28;20298;-89
2022/05/05 00:39:03;;;;;;;;;;;14.40;80.10;;;;;;5045020;28;19951;-89
2022/05/05 00:41:32;;;;;;;;;;;14.40;80.30;;;;;;5074703;28;20355;-90
2022/05/05 00:43:57;;;;;;;;;;;14.40;80.10;;;;;;5074804;28;20010;-89
2022/05/05 00:46:23;;;;;;;;;;;14.30;80.20;;;;;;5074497;28;19972;-89
2022/05/05 00:48:50;;;;;;;;;;;14.30;80.10;;;;;;5068083;28;20391;-90
2022/05/05 00:51:16;;;;;;;;;;;14.30;80.10;;;;;;5053720;28;19965;-90
2022/05/05 00:53:42;;;;;;;;;;;14.20;80.30;;;;;;5053993;28;20043;-89
2022/05/05 00:56:09;;;;;;;;;;;14.20;80.40;;;;;;5054388;28;20309;-89
2022/05/05 00:58:35;;;;;;;;;;;14.10;80.30;;;;;;5058094;28;19958;-89
2022/05/05 01:01:03;;;;;;;;;;;14.20;79.90;;;;;;5074240;28;19931;-90
2022/05/05 01:03:31;;;;;;;;;;;14.30;79.00;;;;;;5074163;28;19919;-89
2022/05/05 01:05:57;;;;;;;;;;;14.30;77.90;;;;;;5074180;28;19913;-89
2022/05/05 01:08:23;;;;;;;;;;;14.40;77.30;;;;;;5073774;28;19950;-90
2022/05/05 01:10:48;;;;;;;;;;;14.50;76.90;;;;;;5073815;28;19954;-90
2022/05/05 01:13:14;;;;;;;;;;;14.50;76.70;;;;;;5073907;28;19972;-89
2022/05/05 01:15:39;;;;;;;;;;;14.50;76.60;;;;;;5070071;28;20321;-89
2022/05/05 01:18:05;;;;;;;;;;;14.50;76.70;;;;;;5053974;28;20366;-89
2022/05/05 01:20:31;;;;;;;;;;;14.40;77.00;;;;;;5053900;28;19932;-90
2022/05/05 01:22:56;;;;;;;;;;;14.40;77.30;;;;;;5054076;28;19934;-89
2022/05/05 01:28:13;;;;;;;;;;;14.30;77.50;;;;;;5073994;28;20079;-90
2022/05/05 01:30:38;;;;;;;;;;;14.30;78.00;;;;;;5073679;28;19932;-89
2022/05/05 01:33:33;;;;;;;;;;;14.20;78.40;;;;;;5073474;28;19961;-90
2022/05/05 01:35:59;;;;;;;;;;;14.20;78.50;;;;;;5070840;28;19936;-90
2022/05/05 01:38:25;;;;;;;;;;;14.10;78.70;;;;;;5073557;28;19996;-89
2022/05/05 01:40:51;;;;;;;;;;;14.00;78.90;;;;;;5073466;28;19929;-89
2022/05/05 01:43:17;;;;;;;;;;;14.00;79.10;;;;;;5073491;28;19945;-90
2022/05/05 01:45:43;;;;;;;;;;;14.00;79.10;;;;;;5073094;28;19923;-90
2022/05/05 01:48:09;;;;;;;;;;;14.00;79.30;;;;;;5073423;28;20424;-89
2022/05/05 01:50:35;;;;;;;;;;;13.90;79.40;;;;;;5073406;28;19940;-89
2022/05/05 01:53:00;;;;;;;;;;;13.80;79.60;;;;;;5071605;28;19951;-89
2022/05/05 01:55:33;;;;;;;;;;;13.50;80.20;;;;;;5072262;28;19929;-90
2022/05/05 01:57:59;;;;;;;;;;;13.40;80.80;;;;;;5053183;28;20406;-89
2022/05/05 02:00:25;;;;;;;;;;;13.40;81.20;;;;;;5053307;28;20365;-90
2022/05/05 02:02:51;;;;;;;;;;;13.60;81.30;;;;;;5053137;28;19936;-89
2022/05/05 02:05:16;;;;;;;;;;;13.70;81.00;;;;;;5053444;28;19963;-89
2022/05/05 02:07:43;;;;;;;;;;;13.70;80.90;;;;;;5035548;28;19946;-89
2022/05/05 02:10:09;;;;;;;;;;;13.80;80.60;;;;;;5052991;28;19952;-89
2022/05/05 02:12:38;;;;;;;;;;;13.80;80.50;;;;;;5076461;22;19987;-90
2022/05/05 02:15:08;;;;;;;;;;;13.80;80.70;;;;;;5072713;28;20366;-90
2022/05/05 02:17:33;;;;;;;;;;;13.90;80.70;;;;;;5055103;28;19937;-90
2022/05/05 02:20:00;;;;;;;;;;;13.80;80.70;;;;;;5053031;28;20362;-90
2022/05/05 02:22:26;;;;;;;;;;;13.80;80.70;;;;;;5053020;28;19909;-89
2022/05/05 02:24:52;;;;;;;;;;;13.80;80.90;;;;;;5052982;28;19920;-89
2022/05/05 02:27:18;;;;;;;;;;;13.80;81.20;;;;;;5068489;28;19955;-89
2022/05/05 02:29:44;;;;;;;;;;;13.80;81.00;;;;;;5072978;28;19936;-89
2022/05/05 02:32:09;;;;;;;;;;;13.90;80.70;;;;;;5072755;28;19919;-89
2022/05/05 02:34:35;;;;;;;;;;;13.90;80.50;;;;;;5072951;28;20087;-90
2022/05/05 02:39:45;;;;;;;;;;;14.00;80.40;;;;;;5053193;28;19916;-89
2022/05/05 02:42:10;;;;;;;;;;;14.00;80.30;;;;;;5053159;28;19921;-90
2022/05/05 02:44:37;;;;;;;;;;;14.10;80.20;;;;;;5052876;28;19965;-90
2022/05/05 02:47:04;;;;;;;;;;;14.10;80.30;;;;;;5053142;28;20036;-90
2022/05/05 02:49:29;;;;;;;;;;;14.10;80.30;;;;;;5052828;28;19909;-89
2022/05/05 02:51:55;;;;;;;;;;;14.10;80.30;;;;;;5052741;28;19947;-90
2022/05/05 02:57:05;;;;;;;;;;;13.90;81.30;;;;;;5052734;28;20065;-89
2022/05/05 02:59:30;;;;;;;;;;;13.90;81.50;;;;;;5052705;28;19977;-90
2022/05/05 03:01:56;;;;;;;;;;;13.90;81.50;;;;;;5052690;28;19908;-89
2022/05/05 03:04:21;;;;;;;;;;;13.90;81.10;;;;;;5052673;28;19941;-89
2022/05/05 03:06:47;;;;;;;;;;;13.90;80.90;;;;;;5062035;28;20332;-90
2022/05/05 03:09:12;;;;;;;;;;;13.90;80.90;;;;;;5072575;28;19951;-89
2022/05/05 03:11:38;;;;;;;;;;;13.80;80.80;;;;;;5072300;28;19952;-89
2022/05/05 03:14:03;;;;;;;;;;;13.70;81.40;;;;;;5072622;28;20180;-90
2022/05/05 03:16:29;;;;;;;;;;;13.70;81.60;;;;;;5074854;28;19951;-89
2022/05/05 03:18:55;;;;;;;;;;;13.70;81.30;;;;;;5076264;28;19956;-89
2022/05/05 03:21:20;;;;;;;;;;;13.70;81.00;;;;;;5076249;28;20282;-88
2022/05/05 03:23:46;;;;;;;;;;;13.70;81.00;;;;;;5075834;28;19954;-89
2022/05/05 03:26:12;;;;;;;;;;;13.60;80.90;;;;;;5069076;28;19941;-89
2022/05/05 03:28:37;;;;;;;;;;;13.60;81.00;;;;;;5056247;28;20074;-90
2022/05/05 03:31:03;;;;;;;;;;;13.70;80.90;;;;;;5056049;28;20040;-90
2022/05/05 03:33:29;;;;;;;;;;;13.70;80.80;;;;;;5055766;28;20285;-90
2022/05/05 03:35:54;;;;;;;;;;;13.70;80.60;;;;;;5055900;28;19928;-90
2022/05/05 03:38:20;;;;;;;;;;;13.70;80.40;;;;;;5055877;28;20073;-89
2022/05/05 03:40:45;;;;;;;;;;;13.70;80.50;;;;;;5055829;28;19957;-90
2022/05/05 03:43:11;;;;;;;;;;;13.70;80.30;;;;;;5055760;28;19920;-90
2022/05/05 03:45:37;;;;;;;;;;;13.70;80.20;;;;;;5055894;28;19999;-89
2022/05/05 03:48:02;;;;;;;;;;;13.70;80.10;;;;;;5075737;28;19974;-89
2022/05/05 03:50:28;;;;;;;;;;;13.70;79.90;;;;;;5075764;28;19930;-90
2022/05/05 03:52:53;;;;;;;;;;;13.70;79.90;;;;;;5075585;28;19957;-89
2022/05/05 03:55:19;;;;;;;;;;;13.70;79.90;;;;;;5075510;28;19950;-89
2022/05/05 03:57:48;;;;;;;;;;;13.70;79.70;;;;;;5057624;28;19909;-90
2022/05/05 04:00:14;;;;;;;;;;;13.70;79.60;;;;;;5055444;28;19937;-89
2022/05/05 04:02:39;;;;;;;;;;;13.80;79.50;;;;;;5055720;28;19939;-89
2022/05/05 04:05:05;;;;;;;;;;;13.80;79.10;;;;;;5055374;28;19953;-89
2022/05/05 04:07:31;;;;;;;;;;;13.80;78.80;;;;;;5069976;28;19933;-89
2022/05/05 04:09:56;;;;;;;;;;;13.80;78.90;;;;;;5075224;28;19985;-89
2022/05/05 04:12:22;;;;;;;;;;;13.80;78.90;;;;;;5075051;28;19953;-89
2022/05/05 04:14:47;;;;;;;;;;;13.80;79.00;;;;;;5075272;28;19926;-89
2022/05/05 04:18:13;;;;;;;;;;;13.70;79.50;;;;;;5111191;27;19957;-89
2022/05/05 04:20:40;;;;;;;;;;;13.70;79.40;;;;;;5111116;28;20003;-90
2022/05/05 04:23:06;;;;;;;;;;;13.70;79.40;;;;;;5111047;28;19927;-90
2022/05/05 04:25:32;;;;;;;;;;;13.70;79.60;;;;;;5111052;28;19992;-90
2022/05/05 04:27:57;;;;;;;;;;;13.70;79.70;;;;;;5110670;28;19965;-90
2022/05/05 04:30:23;;;;;;;;;;;13.70;79.80;;;;;;5110866;28;19941;-90
2022/05/05 04:32:48;;;;;;;;;;;13.70;79.90;;;;;;5110817;28;19941;-90
2022/05/05 04:35:14;;;;;;;;;;;13.80;80.00;;;;;;5110829;28;19922;-91
2022/05/05 04:37:40;;;;;;;;;;;13.90;79.90;;;;;;5110540;28;19957;-90
2022/05/05 04:40:07;;;;;;;;;;;14.00;79.80;;;;;;5110737;28;19932;-90
2022/05/05 04:42:33;;;;;;;;;;;14.00;80.10;;;;;;5110722;28;20003;-90
2022/05/05 04:44:59;;;;;;;;;;;14.00;80.40;;;;;;5110737;28;20390;-90
2022/05/05 04:47:24;;;;;;;;;;;14.00;80.80;;;;;;5110221;28;20504;-90
2022/05/05 04:49:51;;;;;;;;;;;14.20;81.30;;;;;;5110574;28;19924;-90
2022/05/05 04:52:16;;;;;;;;;;;14.20;81.30;;;;;;5110843;28;19946;-90
2022/05/05 04:54:43;;;;;;;;;;;14.30;81.50;;;;;;5110505;28;19940;-90
2022/05/05 04:57:09;;;;;;;;;;;14.40;81.60;;;;;;5104022;28;19969;-90
2022/05/05 04:59:34;;;;;;;;;;;14.50;81.30;;;;;;5092900;28;19963;-90
2022/05/05 05:02:00;;;;;;;;;;;14.60;81.10;;;;;;5102051;28;20372;-90
2022/05/05 05:04:25;;;;;;;;;;;14.70;80.90;;;;;;5109451;28;20009;-90
2022/05/05 05:06:51;;;;;;;;;;;14.80;80.90;;;;;;5101350;28;19938;-90
2022/05/05 05:09:16;;;;;;;;;;;14.80;80.90;;;;;;5089748;28;19916;-90
2022/05/05 05:11:42;;;;;;;;;;;14.90;80.80;;;;;;5089767;28;20333;-90
2022/05/05 05:14:07;;;;;;;;;;;14.90;81.20;;;;;;5100614;28;20297;-90
2022/05/05 05:16:33;;;;;;;;;;;14.90;81.90;;;;;;5102040;28;20074;-90
2022/05/05 05:18:59;;;;;;;;;;;15.00;83.30;;;;;;5094991;28;19923;-90
2022/05/05 05:21:24;;;;;;;;;;;15.10;84.50;;;;;;5091682;28;19979;-90
2022/05/05 05:23:50;;;;;;;;;;;15.20;84.50;;;;;;5107862;28;19938;-90
2022/05/05 05:26:15;;;;;;;;;;;15.30;84.30;;;;;;5105260;28;19928;-90
2022/05/05 05:28:41;;;;;;;;;;;15.40;84.00;;;;;;5080763;28;19927;-90
2022/05/05 05:31:07;;;;;;;;;;;15.50;83.60;;;;;;5078018;28;19942;-90
2022/05/05 05:33:33;;;;;;;;;;;15.50;83.40;;;;;;5086565;28;19937;-90
2022/05/05 05:35:58;;;;;;;;;;;15.60;83.30;;;;;;5085203;28;19930;-90
2022/05/05 05:38:24;;;;;;;;;;;15.60;83.10;;;;;;5084215;28;19942;-90
2022/05/05 05:40:49;;;;;;;;;;;15.60;83.10;;;;;;5082628;28;19944;-90
2022/05/05 05:43:15;;;;;;;;;;;15.60;83.20;;;;;;5088951;28;20032;-90
2022/05/05 05:45:41;;;;;;;;;;;15.70;83.30;;;;;;5081776;28;19990;-90
2022/05/05 05:48:06;;;;;;;;;;;15.70;83.00;;;;;;5085797;28;19943;-90
2022/05/05 05:50:32;;;;;;;;;;;15.80;82.80;;;;;;5096626;28;20020;-90
2022/05/05 05:52:58;;;;;;;;;;;15.80;82.00;;;;;;5078120;28;20044;-90
2022/05/05 05:55:24;;;;;;;;;;;15.80;82.40;;;;;;5087584;28;19957;-90
2022/05/05 05:57:50;;;;;;;;;;;15.90;82.80;;;;;;5090816;28;20448;-89
2022/05/05 06:00:15;;;;;;;;;;;15.90;82.80;;;;;;5090253;28;19950;-90
2022/05/05 06:05:26;;;;;;;;;;;15.90;82.60;;;;;;5080447;28;19987;-90
2022/05/05 06:07:51;;;;;;;;;;;16.00;82.70;;;;;;5084788;28;20009;-90
2022/05/05 06:10:18;;;;;;;;;;;16.00;83.10;;;;;;5078786;28;20432;-90
2022/05/05 06:12:44;;;;;;;;;;;16.00;82.90;;;;;;5081065;28;20047;-90
2022/05/05 06:15:09;;;;;;;;;;;16.00;83.00;;;;;;5086881;28;20025;-90
2022/05/05 06:17:35;;;;;;;;;;;16.10;83.10;;;;;;5084304;28;19965;-90
2022/05/05 06:20:01;;;;;;;;;;;16.20;82.90;;;;;;5082908;28;19982;-89
2022/05/05 06:22:26;;;;;;;;;;;16.20;82.50;;;;;;5085867;28;20655;-90
2022/05/05 06:24:52;;;;;;;;;;;16.20;82.50;;;;;;5092649;28;20443;-89
2022/05/05 06:27:17;;;;;;;;;;;16.30;82.30;;;;;;5084835;28;19953;-89
2022/05/05 06:29:43;;;;;;;;;;;16.30;82.10;;;;;;5093553;28;19956;-89
2022/05/05 06:32:09;;;;;;;;;;;16.40;82.20;;;;;;5080854;28;19960;-89
2022/05/05 06:34:37;;;;;;;;;;;16.40;81.80;;;;;;5086122;28;20327;-89
2022/05/05 06:37:03;;;;;;;;;;;16.50;81.80;;;;;;5081480;28;19974;-89
2022/05/05 06:39:28;;;;;;;;;;;16.50;81.60;;;;;;5078719;28;19951;-89
2022/05/05 06:41:54;;;;;;;;;;;16.60;81.40;;;;;;5076454;28;19926;-89
2022/05/05 06:44:20;;;;;;;;;;;16.70;80.90;;;;;;5080979;28;20023;-89
2022/05/05 06:46:46;;;;;;;;;;;16.80;81.50;;;;;;5082488;28;19958;-89
2022/05/05 06:49:12;;;;;;;;;;;16.90;81.10;;;;;;5091533;28;19939;-89
2022/05/05 06:51:38;;;;;;;;;;;16.90;80.90;;;;;;5079941;28;20011;-89
2022/05/05 06:54:04;;;;;;;;;;;16.90;80.90;;;;;;5084106;28;19934;-89
2022/05/05 06:56:29;;;;;;;;;;;17.00;80.90;;;;;;5078542;28;20458;-90
2022/05/05 06:58:55;;;;;;;;;;;17.20;80.50;;;;;;5088938;28;20374;-89
2022/05/05 07:06:49;;;;;;;;;;;17.40;79.10;;;;;;5081292;28;19929;-89
2022/05/05 07:11:58;;;;;;;;;;;17.50;78.70;;;;;;5077842;28;19926;-89
2022/05/05 07:14:24;;;;;;;;;;;17.60;78.60;;;;;;5079593;28;19964;-90
2022/05/05 07:16:50;;;;;;;;;;;17.70;77.70;;;;;;5074069;28;20483;-90
2022/05/05 07:19:15;;;;;;;;;;;17.80;77.80;;;;;;5081369;28;19964;-90
2022/05/05 07:21:41;;;;;;;;;;;17.80;77.70;;;;;;5084139;28;20448;-89
2022/05/05 07:24:06;;;;;;;;;;;17.90;77.20;;;;;;5078758;28;19939;-90
2022/05/05 07:26:32;;;;;;;;;;;18.00;76.70;;;;;;5079818;28;19949;-89
2022/05/05 07:28:57;;;;;;;;;;;18.00;76.30;;;;;;5082204;28;20357;-90
2022/05/05 07:31:23;;;;;;;;;;;18.10;76.20;;;;;;5081531;28;19946;-90
2022/05/05 07:33:48;;;;;;;;;;;18.20;76.00;;;;;;5080593;28;19979;-90
2022/05/05 07:36:14;;;;;;;;;;;18.30;75.90;;;;;;5087715;28;19973;-90
2022/05/05 07:38:40;;;;;;;;;;;18.30;76.10;;;;;;5081097;28;19935;-90
2022/05/05 07:41:06;;;;;;;;;;;18.50;75.50;;;;;;5082115;28;19955;-89
2022/05/05 07:43:31;;;;;;;;;;;18.60;74.50;;;;;;5078477;28;19933;-90
2022/05/05 07:45:57;;;;;;;;;;;18.70;73.80;;;;;;5086371;28;20007;-90
2022/05/05 07:48:22;;;;;;;;;;;18.80;73.30;;;;;;5078879;28;20027;-90
2022/05/05 07:50:48;;;;;;;;;;;18.90;73.00;;;;;;5078683;28;19932;-90
2022/05/05 07:53:14;;;;;;;;;;;18.90;72.60;;;;;;5080927;28;19913;-89
2022/05/05 07:55:39;;;;;;;;;;;19.00;71.80;;;;;;5080701;28;19924;-89
2022/05/05 07:58:05;;;;;;;;;;;19.00;71.90;;;;;;5088745;28;19952;-88
2022/05/05 08:00:30;;;;;;;;;;;19.00;72.10;;;;;;5085923;28;19938;-89
2022/05/05 08:02:56;;;;;;;;;;;19.00;72.20;;;;;;5082320;28;19934;-89
2022/05/05 08:05:21;;;;;;;;;;;19.00;72.80;;;;;;5082913;28;20392;-89
2022/05/05 08:07:49;;;;;;;;;;;19.10;72.50;;;;;;5098833;28;19938;-89
2022/05/05 08:10:18;;;;;;;;;;;19.20;71.90;;;;;;5093191;28;20429;-89
2022/05/05 08:12:45;;;;;;;;;;;19.10;72.70;;;;;;5092351;28;19918;-89
2022/05/05 08:15:11;;;;;;;;;;;19.20;72.30;;;;;;5084632;28;19938;-89
2022/05/05 08:17:37;;;;;;;;;;;19.30;72.50;;;;;;5081562;28;20006;-90
2022/05/05 08:20:03;;;;;;;;;;;19.30;71.50;;;;;;5091740;28;19912;-90
2022/05/05 08:22:29;;;;;;;;;;;19.30;71.40;;;;;;5095761;28;19946;-90
2022/05/05 08:30:23;;;;;;;;;;;19.50;69.90;;;;;;5101330;28;20395;-89
2022/05/05 08:32:48;;;;;;;;;;;19.60;69.40;;;;;;5079350;28;19948;-90
2022/05/05 08:35:14;;;;;;;;;;;19.70;68.70;;;;;;5081083;28;19970;-90
2022/05/05 08:37:39;;;;;;;;;;;19.80;67.80;;;;;;5074784;28;19952;-90
2022/05/05 08:40:05;;;;;;;;;;;19.80;68.00;;;;;;5081483;28;19920;-90
2022/05/05 08:42:31;;;;;;;;;;;19.90;68.50;;;;;;5077263;28;20290;-90
2022/05/05 08:44:59;;;;;;;;;;;20.00;67.60;;;;;;5087197;28;19916;-89
2022/05/05 08:47:26;;;;;;;;;;;20.10;66.80;;;;;;5087582;28;19956;-90
2022/05/05 08:49:57;;;;;;;;;;;20.10;67.50;;;;;;5088183;28;19912;-90
2022/05/05 08:52:24;;;;;;;;;;;20.20;68.30;;;;;;5097878;28;19928;-90
2022/05/05 08:54:50;;;;;;;;;;;20.20;66.60;;;;;;5078077;28;19919;-89
2022/05/05 08:57:15;;;;;;;;;;;20.20;66.30;;;;;;5083262;28;19920;-90
2022/05/05 08:59:41;;;;;;;;;;;20.30;66.10;;;;;;5086803;28;20282;-90
2022/05/05 09:02:07;;;;;;;;;;;20.30;65.70;;;;;;5082757;28;19912;-90
2022/05/05 09:04:33;;;;;;;;;;;20.40;65.40;;;;;;5080523;28;19927;-90
2022/05/05 09:06:58;;;;;;;;;;;20.50;65.90;;;;;;5086600;28;19912;-90
2022/05/05 09:09:24;;;;;;;;;;;20.40;66.70;;;;;;5091210;28;20356;-89
2022/05/05 09:12:15;;;;;;;;;;;20.60;65.70;;;;;;5088711;28;19919;-90
2022/05/05 09:14:41;;;;;;;;;;;20.60;65.70;;;;;;5082371;28;20393;-90
2022/05/05 09:17:07;;;;;;;;;;;20.60;63.80;;;;;;5086119;28;19920;-90
2022/05/05 09:19:36;;;;;;;;;;;20.70;63.60;;;;;;5085074;28;20359;-90
2022/05/05 09:22:03;;;;;;;;;;;20.80;63.10;;;;;;5083237;28;19959;-90
2022/05/05 09:24:34;;;;;;;;;;;20.80;64.00;;;;;;5090558;28;19912;-90
2022/05/05 09:27:20;;;;;;;;;;;20.90;64.00;;;;;;5096724;28;20428;-89
2022/05/05 09:30:00;;;;;;;;;;;21.00;63.20;;;;;;5093657;28;19912;-90
2022/05/05 09:32:46;;;;;;;;;;;21.10;61.60;;;;;;5094139;28;20370;-90
2022/05/05 09:35:13;;;;;;;;;;;21.10;61.40;;;;;;5079476;28;19913;-90
2022/05/05 09:37:45;;;;;;;;;;;21.30;60.40;;;;;;5083680;28;19949;-90
2022/05/05 09:40:12;;;;;;;;;;;21.30;60.70;;;;;;5080814;28;19967;-89
2022/05/05 09:42:40;;;;;;;;;;;21.30;62.00;;;;;;5083714;28;19994;-90
2022/05/05 09:45:10;;;;;;;;;;;21.30;62.60;;;;;;5089829;28;19912;-90
2022/05/05 09:47:36;;;;;;;;;;;21.40;61.40;;;;;;5094225;28;19955;-90
2022/05/05 09:50:01;;;;;;;;;;;21.50;61.60;;;;;;5093264;28;19924;-89
2022/05/05 09:57:56;;;;;;;;;;;20.90;64.50;;;;;;5101362;28;20475;-89
2022/05/05 10:05:48;;;;;;;;;;;20.80;65.50;;;;;;5079681;28;19919;-90
2022/05/05 10:08:15;;;;;;;;;;;21.00;65.70;;;;;;5087428;28;19946;-90
2022/05/05 10:10:42;;;;;;;;;;;21.00;65.90;;;;;;5079411;28;20388;-90
2022/05/05 10:13:09;;;;;;;;;;;21.20;65.90;;;;;;5082936;28;19961;-90
2022/05/05 10:15:35;;;;;;;;;;;21.20;65.20;;;;;;5094656;28;19916;-90
2022/05/05 10:18:03;;;;;;;;;;;21.20;66.30;;;;;;5094568;28;19924;-90
2022/05/05 10:20:29;;;;;;;;;;;21.10;65.90;;;;;;5094972;28;19908;-90
2022/05/05 10:23:21;;;;;;;;;;;21.10;64.80;;;;;;5095203;28;20003;-90
2022/05/05 10:25:53;;;;;;;;;;;21.20;64.50;;;;;;5080686;28;19912;-90
2022/05/05 10:28:37;;;;;;;;;;;21.10;64.20;;;;;;5095337;28;19930;-90
2022/05/05 10:31:02;;;;;;;;;;;21.20;64.70;;;;;;5094760;28;19966;-90
2022/05/05 10:33:47;;;;;;;;;;;21.30;64.30;;;;;;5086158;28;20386;-90
2022/05/05 10:36:23;;;;;;;;;;;21.30;64.30;;;;;;5074917;28;19908;-90
2022/05/05 10:38:50;;;;;;;;;;;21.30;63.00;;;;;;5074668;28;19946;-90
2022/05/05 10:41:31;;;;;;;;;;;21.40;62.40;;;;;;5075615;28;20423;-90
2022/05/05 10:44:15;;;;;;;;;;;21.50;62.30;;;;;;5094832;28;20401;-90
2022/05/05 10:47:00;;;;;;;;;;;21.40;62.60;;;;;;5094449;28;20346;-90
2022/05/05 10:49:32;;;;;;;;;;;21.30;61.90;;;;;;5094654;28;19962;-90
2022/05/05 10:52:21;;;;;;;;;;;21.30;61.80;;;;;;5094296;28;19912;-90
2022/05/05 10:54:47;;;;;;;;;;;21.40;62.00;;;;;;5088712;28;19912;-90
2022/05/05 10:57:25;;;;;;;;;;;21.50;61.70;;;;;;5093431;28;19919;-90
2022/05/05 11:00:09;;;;;;;;;;;21.40;61.10;;;;;;5094501;28;19912;-90
2022/05/05 11:02:35;;;;;;;;;;;21.60;61.10;;;;;;5094210;28;19962;-90
2022/05/05 11:05:19;;;;;;;;;;;21.70;61.10;;;;;;5094386;28;19949;-90
2022/05/05 11:07:48;;;;;;;;;;;21.70;61.40;;;;;;5088274;28;19916;-90
2022/05/05 11:10:33;;;;;;;;;;;21.80;59.60;;;;;;5092859;28;20370;-90
2022/05/05 11:12:58;;;;;;;;;;;21.80;60.20;;;;;;5094224;28;19916;-90
2022/05/05 11:23:56;;;;;;;;;;;22.20;56.90;;;;;;5093991;28;19919;-90
2022/05/05 11:26:22;;;;;;;;;;;22.00;56.80;;;;;;5090424;28;20377;-90
2022/05/05 11:28:48;;;;;;;;;;;21.90;57.60;;;;;;5092980;28;19939;-90
2022/05/05 11:31:19;;;;;;;;;;;21.80;57.60;;;;;;5078924;28;19913;-90
2022/05/05 11:34:13;;;;;;;;;;;21.90;57.50;;;;;;5087302;28;19950;-90
2022/05/05 11:36:41;;;;;;;;;;;22.00;56.90;;;;;;5084793;28;20003;-90
2022/05/05 11:39:09;;;;;;;;;;;21.90;57.10;;;;;;5079388;28;19908;-90
2022/05/05 11:41:35;;;;;;;;;;;21.90;58.10;;;;;;5094588;28;19986;-90
2022/05/05 11:44:17;;;;;;;;;;;21.90;59.50;;;;;;5097828;28;20425;-90
2022/05/05 11:46:44;;;;;;;;;;;21.80;59.30;;;;;;5081002;28;19938;-89
2022/05/05 11:49:10;;;;;;;;;;;21.90;60.00;;;;;;5075932;28;19908;-89
2022/05/05 11:51:35;;;;;;;;;;;21.90;59.30;;;;;;5090313;28;19935;-90
2022/05/05 11:54:08;;;;;;;;;;;21.90;57.60;;;;;;5090873;28;19912;-90
2022/05/05 11:56:35;;;;;;;;;;;21.90;56.00;;;;;;5083704;28;19963;-90
2022/05/05 12:01:58;;;;;;;;;;;21.80;57.50;;;;;;5101603;28;19935;-90
2022/05/05 12:04:24;;;;;;;;;;;21.80;58.10;;;;;;5080702;28;19913;-90
2022/05/05 12:06:50;;;;;;;;;;;21.80;57.30;;;;;;5080436;28;20283;-90
2022/05/05 12:09:15;;;;;;;;;;;21.80;57.50;;;;;;5087176;28;19908;-90
2022/05/05 12:11:43;;;;;;;;;;;21.80;56.90;;;;;;5084413;28;19912;-90
2022/05/05 12:14:11;;;;;;;;;;;21.80;58.50;;;;;;5091892;28;20388;-89
2022/05/05 12:16:37;;;;;;;;;;;21.80;57.20;;;;;;5097805;22;19924;-90
2022/05/05 12:19:11;;;;;;;;;;;21.80;57.90;;;;;;5100482;28;19919;-90
2022/05/05 12:21:38;;;;;;;;;;;21.80;59.60;;;;;;5102596;28;20280;-90
2022/05/05 12:24:03;;;;;;;;;;;21.80;59.40;;;;;;5082568;28;19958;-90
2022/05/05 12:26:34;;;;;;;;;;;21.80;59.00;;;;;;5084240;28;19912;-90
2022/05/05 12:29:00;;;;;;;;;;;21.80;57.70;;;;;;5087395;28;20010;-89
2022/05/05 12:31:28;;;;;;;;;;;21.80;57.10;;;;;;5089298;28;19999;-90
2022/05/05 12:33:54;;;;;;;;;;;21.80;58.60;;;;;;5087386;28;19928;-89
2022/05/05 12:36:26;;;;;;;;;;;21.60;57.60;;;;;;5106735;28;19908;-89
2022/05/05 12:38:52;;;;;;;;;;;21.60;58.60;;;;;;5090073;28;19912;-90
2022/05/05 12:41:18;;;;;;;;;;;21.40;58.30;;;;;;5094324;28;19912;-90
2022/05/05 12:43:44;;;;;;;;;;;21.30;59.50;;;;;;5085151;28;19912;-89
2022/05/05 12:46:09;;;;;;;;;;;21.30;59.70;;;;;;5093296;28;19912;-90
2022/05/05 12:48:38;;;;;;;;;;;21.30;60.40;;;;;;5090150;28;19951;-90
2022/05/05 12:51:13;;;;;;;;;;;21.50;60.60;;;;;;5101980;28;20031;-89
2022/05/05 13:01:53;;;;;;;;;;;21.20;61.70;;;;;;5085698;28;19919;-90
2022/05/05 13:04:19;;;;;;;;;;;21.30;62.30;;;;;;5098249;28;19920;-90
2022/05/05 13:06:45;;;;;;;;;;;21.20;62.00;;;;;;5092413;28;19934;-89
2022/05/05 13:09:11;;;;;;;;;;;21.10;62.90;;;;;;5084930;28;19950;-89
2022/05/05 13:11:41;;;;;;;;;;;21.00;63.50;;;;;;5094886;28;19952;-90
2022/05/05 13:14:07;;;;;;;;;;;20.90;63.50;;;;;;5102950;28;19912;-90
2022/05/05 13:16:33;;;;;;;;;;;20.80;64.40;;;;;;5084316;28;19991;-89
2022/05/05 13:19:01;;;;;;;;;;;20.70;65.40;;;;;;5098415;28;19960;-90
2022/05/05 13:21:27;;;;;;;;;;;20.60;65.70;;;;;;5108160;28;19995;-90
2022/05/05 13:23:53;;;;;;;;;;;20.50;66.20;;;;;;5089406;28;19939;-90
2022/05/05 13:26:19;;;;;;;;;;;20.50;64.70;;;;;;5087755;28;20401;-90
2022/05/05 13:28:45;;;;;;;;;;;20.60;65.00;;;;;;5093055;28;20001;-90
2022/05/05 13:31:10;;;;;;;;;;;20.60;64.90;;;;;;5081699;28;19913;-90
2022/05/05 13:33:36;;;;;;;;;;;20.70;64.90;;;;;;5081462;28;20345;-90
2022/05/05 13:36:01;;;;;;;;;;;20.80;64.20;;;;;;5088073;28;20366;-90
2022/05/05 13:38:27;;;;;;;;;;;20.80;63.90;;;;;;5098150;28;19970;-90
2022/05/05 13:40:53;;;;;;;;;;;20.80;63.90;;;;;;5087127;28;20031;-90
2022/05/05 13:43:18;;;;;;;;;;;20.80;64.10;;;;;;5087995;28;19915;-90
2022/05/05 13:45:44;;;;;;;;;;;20.70;62.80;;;;;;5095305;28;19973;-90
2022/05/05 13:48:10;;;;;;;;;;;20.60;62.70;;;;;;5099785;28;19912;-89
2022/05/05 13:50:35;;;;;;;;;;;20.50;62.10;;;;;;5084287;28;19939;-90
2022/05/05 13:53:01;;;;;;;;;;;20.40;61.80;;;;;;5090690;28;19947;-90
2022/05/05 13:55:30;;;;;;;;;;;20.30;62.80;;;;;;5085687;28;19913;-89
2022/05/05 13:57:59;;;;;;;;;;;20.30;64.10;;;;;;5095374;28;19916;-89
2022/05/05 14:00:25;;;;;;;;;;;20.30;64.80;;;;;;5088134;28;19920;-90
2022/05/05 14:02:51;;;;;;;;;;;20.10;65.40;;;;;;5087510;28;20274;-90
2022/05/05 14:05:16;;;;;;;;;;;20.10;66.10;;;;;;5096136;28;19918;-89
2022/05/05 14:13:10;;;;;;;;;;;20.10;65.50;;;;;;5093344;28;19919;-89
2022/05/05 14:15:37;;;;;;;;;;;20.00;65.30;;;;;;5095441;28;19912;-89
2022/05/05 14:18:03;;;;;;;;;;;20.00;65.80;;;;;;5085843;28;19929;-90
2022/05/05 14:20:30;;;;;;;;;;;20.00;66.40;;;;;;5092573;28;19911;-90
2022/05/05 14:22:56;;;;;;;;;;;20.00;67.50;;;;;;5096436;28;20438;-89
2022/05/05 14:25:21;;;;;;;;;;;19.90;67.60;;;;;;5090663;28;19970;-89
2022/05/05 14:27:47;;;;;;;;;;;19.90;67.40;;;;;;5089760;28;19945;-90
2022/05/05 14:30:12;;;;;;;;;;;19.90;67.10;;;;;;5088127;28;19913;-89
2022/05/05 14:32:39;;;;;;;;;;;19.80;67.30;;;;;;5090929;28;20393;-89
2022/05/05 14:35:05;;;;;;;;;;;19.90;66.90;;;;;;5089491;28;19912;-90
2022/05/05 14:37:30;;;;;;;;;;;19.90;66.70;;;;;;5094526;28;20319;-89
2022/05/05 14:39:56;;;;;;;;;;;19.90;65.80;;;;;;5099225;28;20278;-90
2022/05/05 14:42:22;;;;;;;;;;;20.00;65.70;;;;;;5093219;28;19958;-89
2022/05/05 14:44:47;;;;;;;;;;;20.00;65.90;;;;;;5097276;28;19919;-89
2022/05/05 14:47:13;;;;;;;;;;;20.00;66.10;;;;;;5096630;28;20024;-89
2022/05/05 14:49:38;;;;;;;;;;;19.90;66.90;;;;;;5081354;28;19908;-90
2022/05/05 14:52:04;;;;;;;;;;;19.90;66.50;;;;;;5085617;28;19966;-89
2022/05/05 14:54:30;;;;;;;;;;;19.90;67.30;;;;;;5085891;28;20389;-89
2022/05/05 14:56:56;;;;;;;;;;;19.80;67.50;;;;;;5086622;28;20026;-90
2022/05/05 14:59:22;;;;;;;;;;;19.70;67.80;;;;;;5084989;28;20027;-90
2022/05/05 15:01:48;;;;;;;;;;;19.80;68.40;;;;;;5086923;28;19938;-89
2022/05/05 15:04:13;;;;;;;;;;;19.70;68.60;;;;;;5085683;28;19912;-89
2022/05/05 15:06:39;;;;;;;;;;;19.70;67.70;;;;;;5087409;28;20274;-89
2022/05/05 15:09:05;;;;;;;;;;;19.70;68.90;;;;;;5081403;28;20359;-90
2022/05/05 15:11:31;;;;;;;;;;;19.70;69.30;;;;;;5090681;28;19957;-90
2022/05/05 15:13:56;;;;;;;;;;;19.70;70.10;;;;;;5089350;28;20011;-89
2022/05/05 15:16:22;;;;;;;;;;;19.50;69.80;;;;;;5091733;28;20010;-89
2022/05/05 15:18:48;;;;;;;;;;;19.40;69.80;;;;;;5080764;28;19919;-90
2022/05/05 15:21:14;;;;;;;;;;;19.40;70.30;;;;;;5094142;28;20146;-89